sensor_id;sensor_type;location;lat;lon;timestamp;temperature;humidity
37222;DHT22;23119;51.842;-2.230;2023-02-28T00:01:29;5.80;99.90
37222;DHT22;23119;51.842;-2.230;2023-02-28T00:03:55;5.80;99.90
37222;DHT22;23119;51.842;-2.230;2023-02-28T00:06:21;5.70;99.90
37222;DHT22;23119;51.842;-2.230;2023-02-28T00:08:47;5.80;99.90
37222;DHT22;23119;51.842;-2.230;2023-02-28T00:11:16;5.70;99.90
37222;DHT22;23119;51.842;-2.230;2023-02-28T00:13:47;5.90;99.90
37222;DHT22;23119;51.842;-2.230;2023-02-28T00:16:21;5.60;99.90
37222;DHT22;23119;51.842;-2.230;2023-02-28T00:18:49;5.70;99.90
37222;DHT22;23119;51.842;-2.230;2023-02-28T00:21:18;5.60;99.90
37222;DHT22;23119;51.842;-2.230;2023-02-28T00:23:47;5.70;99.90
37222;DHT22;23119;51.842;-2.230;2023-02-28T00:26:15;5.60;99.90
37222;DHT22;23119;51.842;-2.230;2023-02-28T00:28:41;5.90;99.90
37222;DHT22;23119;51.842;-2.230;2023-02-28T00:31:07;5.60;99.90
37222;DHT22;23119;51.842;-2.230;2023-02-28T00:33:35;5.70;99.90
37222;DHT22;23119;51.842;-2.230;2023-02-28T00:36:03;5.60;99.90
37222;DHT22;23119;51.842;-2.230;2023-02-28T00:38:31;5.60;99.90
37222;DHT22;23119;51.842;-2.230;2023-02-28T00:41:00;5.70;99.90
37222;DHT22;23119;51.842;-2.230;2023-02-28T00:43:30;7.40;99.90
37222;DHT22;23119;51.842;-2.230;2023-02-28T00:45:59;5.60;99.90
37222;DHT22;23119;51.842;-2.230;2023-02-28T00:48:27;5.60;99.90
37222;DHT22;23119;51.842;-2.230;2023-02-28T00:50:53;5.70;99.90
37222;DHT22;23119;51.842;-2.230;2023-02-28T00:53:19;5.70;99.90
37222;DHT22;23119;51.842;-2.230;2023-02-28T00:55:46;5.70;99.90
37222;DHT22;23119;51.842;-2.230;2023-02-28T00:58:11;5.70;99.90
37222;DHT22;23119;51.842;-2.230;2023-02-28T01:00:37;5.70;99.90
37222;DHT22;23119;51.842;-2.230;2023-02-28T01:03:03;5.70;99.90
37222;DHT22;23119;51.842;-2.230;2023-02-28T01:05:31;5.70;99.90
37222;DHT22;23119;51.842;-2.230;2023-02-28T01:07:57;5.70;99.90
37222;DHT22;23119;51.842;-2.230;2023-02-28T01:10:22;5.80;99.90
37222;DHT22;23119;51.842;-2.230;2023-02-28T01:12:48;5.70;99.90
37222;DHT22;23119;51.842;-2.230;2023-02-28T01:15:17;5.70;99.90
37222;DHT22;23119;51.842;-2.230;2023-02-28T01:17:47;5.70;99.90
37222;DHT22;23119;51.842;-2.230;2023-02-28T01:20:13;5.70;99.90
37222;DHT22;23119;51.842;-2.230;2023-02-28T01:22:45;5.70;99.90
37222;DHT22;23119;51.842;-2.230;2023-02-28T01:25:13;5.60;99.90
37222;DHT22;23119;51.842;-2.230;2023-02-28T01:27:39;5.70;99.90
37222;DHT22;23119;51.842;-2.230;2023-02-28T01:30:08;5.70;99.90
37222;DHT22;23119;51.842;-2.230;2023-02-28T01:32:37;5.70;99.90
37222;DHT22;23119;51.842;-2.230;2023-02-28T01:35:03;5.70;99.90
37222;DHT22;23119;51.842;-2.230;2023-02-28T01:37:29;5.70;99.90
37222;DHT22;23119;51.842;-2.230;2023-02-28T01:39:55;5.60;99.90
37222;DHT22;23119;51.842;-2.230;2023-02-28T01:42:23;5.60;99.90
37222;DHT22;23119;51.842;-2.230;2023-02-28T01:45:23;5.60;99.90
37222;DHT22;23119;51.842;-2.230;2023-02-28T01:47:54;5.60;99.90
37222;DHT22;23119;51.842;-2.230;2023-02-28T01:50:24;5.50;99.90
37222;DHT22;23119;51.842;-2.230;2023-02-28T01:52:51;5.50;99.90
37222;DHT22;23119;51.842;-2.230;2023-02-28T01:55:20;5.40;99.90
37222;DHT22;23119;51.842;-2.230;2023-02-28T01:57:53;5.40;99.90
37222;DHT22;23119;51.842;-2.230;2023-02-28T02:00:25;5.20;99.90
37222;DHT22;23119;51.842;-2.230;2023-02-28T02:02:58;5.30;99.90
37222;DHT22;23119;51.842;-2.230;2023-02-28T02:05:28;5.20;99.90
37222;DHT22;23119;51.842;-2.230;2023-02-28T02:08:01;5.20;99.90
37222;DHT22;23119;51.842;-2.230;2023-02-28T02:10:44;5.10;99.90
37222;DHT22;23119;51.842;-2.230;2023-02-28T02:16:17;5.00;99.90
37222;DHT22;23119;51.842;-2.230;2023-02-28T02:18:51;5.30;99.90
37222;DHT22;23119;51.842;-2.230;2023-02-28T02:22:21;5.00;99.90
37222;DHT22;23119;51.842;-2.230;2023-02-28T02:35:24;5.00;99.90
37222;DHT22;23119;51.842;-2.230;2023-02-28T02:40:41;5.00;99.90
37222;DHT22;23119;51.842;-2.230;2023-02-28T02:43:18;4.90;99.90
37222;DHT22;23119;51.842;-2.230;2023-02-28T02:45:54;4.90;99.90
37222;DHT22;23119;51.842;-2.230;2023-02-28T02:48:29;4.90;99.90
37222;DHT22;23119;51.842;-2.230;2023-02-28T02:50:59;4.90;99.90
37222;DHT22;23119;51.842;-2.230;2023-02-28T02:53:51;4.90;99.90
37222;DHT22;23119;51.842;-2.230;2023-02-28T02:56:19;4.80;99.90
37222;DHT22;23119;51.842;-2.230;2023-02-28T02:58:48;4.90;99.90
37222;DHT22;23119;51.842;-2.230;2023-02-28T03:01:27;4.90;99.90
37222;DHT22;23119;51.842;-2.230;2023-02-28T03:04:00;4.90;99.90
37222;DHT22;23119;51.842;-2.230;2023-02-28T03:06:29;4.90;99.90
37222;DHT22;23119;51.842;-2.230;2023-02-28T03:08:55;4.90;99.90
37222;DHT22;23119;51.842;-2.230;2023-02-28T03:11:21;4.80;99.90
37222;DHT22;23119;51.842;-2.230;2023-02-28T03:20:20;4.80;99.90
37222;DHT22;23119;51.842;-2.230;2023-02-28T03:30:59;4.90;99.90
37222;DHT22;23119;51.842;-2.230;2023-02-28T03:33:37;4.90;99.90
37222;DHT22;23119;51.842;-2.230;2023-02-28T03:36:13;4.80;99.90
37222;DHT22;23119;51.842;-2.230;2023-02-28T03:38:58;4.90;99.90
37222;DHT22;23119;51.842;-2.230;2023-02-28T03:41:38;4.60;99.90
37222;DHT22;23119;51.842;-2.230;2023-02-28T03:44:21;4.80;99.90
37222;DHT22;23119;51.842;-2.230;2023-02-28T03:47:10;4.80;99.90
37222;DHT22;23119;51.842;-2.230;2023-02-28T03:50:01;4.70;99.90
37222;DHT22;23119;51.842;-2.230;2023-02-28T03:52:34;4.80;99.90
37222;DHT22;23119;51.842;-2.230;2023-02-28T03:55:05;4.80;99.90
37222;DHT22;23119;51.842;-2.230;2023-02-28T03:57:43;4.90;99.90
37222;DHT22;23119;51.842;-2.230;2023-02-28T04:00:24;4.80;99.90
37222;DHT22;23119;51.842;-2.230;2023-02-28T04:02:54;4.90;99.90
37222;DHT22;23119;51.842;-2.230;2023-02-28T04:05:21;4.80;99.90
37222;DHT22;23119;51.842;-2.230;2023-02-28T04:07:50;4.80;99.90
37222;DHT22;23119;51.842;-2.230;2023-02-28T04:10:16;4.90;99.90
37222;DHT22;23119;51.842;-2.230;2023-02-28T04:12:44;4.80;99.90
37222;DHT22;23119;51.842;-2.230;2023-02-28T04:15:10;4.90;99.90
37222;DHT22;23119;51.842;-2.230;2023-02-28T04:17:40;4.90;99.90
37222;DHT22;23119;51.842;-2.230;2023-02-28T04:20:12;4.90;99.90
37222;DHT22;23119;51.842;-2.230;2023-02-28T04:22:40;4.80;99.90
37222;DHT22;23119;51.842;-2.230;2023-02-28T04:25:09;4.80;99.90
37222;DHT22;23119;51.842;-2.230;2023-02-28T04:27:37;4.80;99.90
37222;DHT22;23119;51.842;-2.230;2023-02-28T04:30:03;4.70;99.90
37222;DHT22;23119;51.842;-2.230;2023-02-28T04:32:29;4.70;99.90
37222;DHT22;23119;51.842;-2.230;2023-02-28T04:34:55;4.70;99.90
37222;DHT22;23119;51.842;-2.230;2023-02-28T04:37:21;4.60;99.90
37222;DHT22;23119;51.842;-2.230;2023-02-28T04:39:53;4.60;99.90
37222;DHT22;23119;51.842;-2.230;2023-02-28T04:42:18;4.60;99.90
37222;DHT22;23119;51.842;-2.230;2023-02-28T04:44:47;4.60;99.90
37222;DHT22;23119;51.842;-2.230;2023-02-28T04:47:12;2.80;99.90
37222;DHT22;23119;51.842;-2.230;2023-02-28T04:49:41;4.30;99.90
37222;DHT22;23119;51.842;-2.230;2023-02-28T04:52:06;4.40;99.90
37222;DHT22;23119;51.842;-2.230;2023-02-28T04:54:33;4.40;99.90
37222;DHT22;23119;51.842;-2.230;2023-02-28T04:57:01;4.30;99.90
37222;DHT22;23119;51.842;-2.230;2023-02-28T04:59:29;4.40;99.90
37222;DHT22;23119;51.842;-2.230;2023-02-28T05:01:58;4.40;99.90
37222;DHT22;23119;51.842;-2.230;2023-02-28T05:04:23;4.40;99.90
37222;DHT22;23119;51.842;-2.230;2023-02-28T05:06:49;4.40;99.90
37222;DHT22;23119;51.842;-2.230;2023-02-28T05:09:24;4.50;99.90
37222;DHT22;23119;51.842;-2.230;2023-02-28T05:11:50;4.50;99.90
37222;DHT22;23119;51.842;-2.230;2023-02-28T05:16:45;4.50;99.90
37222;DHT22;23119;51.842;-2.230;2023-02-28T05:19:11;4.50;99.90
37222;DHT22;23119;51.842;-2.230;2023-02-28T05:21:47;4.70;99.90
37222;DHT22;23119;51.842;-2.230;2023-02-28T05:24:17;4.60;99.90
37222;DHT22;23119;51.842;-2.230;2023-02-28T05:26:49;4.60;99.90
37222;DHT22;23119;51.842;-2.230;2023-02-28T05:29:16;4.70;99.90
37222;DHT22;23119;51.842;-2.230;2023-02-28T05:31:42;4.80;99.90
37222;DHT22;23119;51.842;-2.230;2023-02-28T05:34:07;4.70;99.90
37222;DHT22;23119;51.842;-2.230;2023-02-28T05:36:33;4.80;99.90
37222;DHT22;23119;51.842;-2.230;2023-02-28T05:38:59;4.70;99.90
37222;DHT22;23119;51.842;-2.230;2023-02-28T05:41:25;5.00;99.90
37222;DHT22;23119;51.842;-2.230;2023-02-28T05:43:51;4.70;99.90
37222;DHT22;23119;51.842;-2.230;2023-02-28T05:46:17;4.80;99.90
37222;DHT22;23119;51.842;-2.230;2023-02-28T05:48:46;5.00;99.90
37222;DHT22;23119;51.842;-2.230;2023-02-28T05:51:12;4.90;99.90
37222;DHT22;23119;51.842;-2.230;2023-02-28T05:53:38;4.90;99.90
37222;DHT22;23119;51.842;-2.230;2023-02-28T05:56:06;4.90;99.90
37222;DHT22;23119;51.842;-2.230;2023-02-28T06:01:23;4.90;99.90
37222;DHT22;23119;51.842;-2.230;2023-02-28T06:03:49;5.20;99.90
37222;DHT22;23119;51.842;-2.230;2023-02-28T06:06:23;4.80;99.90
37222;DHT22;23119;51.842;-2.230;2023-02-28T06:08:49;5.00;99.90
37222;DHT22;23119;51.842;-2.230;2023-02-28T06:11:14;4.90;99.90
37222;DHT22;23119;51.842;-2.230;2023-02-28T06:13:43;4.90;99.90
37222;DHT22;23119;51.842;-2.230;2023-02-28T06:16:10;4.90;99.90
37222;DHT22;23119;51.842;-2.230;2023-02-28T06:18:39;4.90;99.90
37222;DHT22;23119;51.842;-2.230;2023-02-28T06:21:07;4.90;99.90
37222;DHT22;23119;51.842;-2.230;2023-02-28T06:23:34;5.10;99.90
37222;DHT22;23119;51.842;-2.230;2023-02-28T06:26:02;4.80;99.90
37222;DHT22;23119;51.842;-2.230;2023-02-28T06:28:30;5.00;99.90
37222;DHT22;23119;51.842;-2.230;2023-02-28T06:30:56;5.10;99.90
37222;DHT22;23119;51.842;-2.230;2023-02-28T06:33:22;4.90;99.90
37222;DHT22;23119;51.842;-2.230;2023-02-28T06:35:50;5.00;99.90
37222;DHT22;23119;51.842;-2.230;2023-02-28T06:38:16;4.90;99.90
37222;DHT22;23119;51.842;-2.230;2023-02-28T06:40:44;4.90;99.90
37222;DHT22;23119;51.842;-2.230;2023-02-28T06:43:09;4.80;99.90
37222;DHT22;23119;51.842;-2.230;2023-02-28T06:45:42;4.90;99.90
37222;DHT22;23119;51.842;-2.230;2023-02-28T06:48:09;5.00;99.90
37222;DHT22;23119;51.842;-2.230;2023-02-28T06:50:36;5.00;99.90
37222;DHT22;23119;51.842;-2.230;2023-02-28T06:53:02;5.00;99.90
37222;DHT22;23119;51.842;-2.230;2023-02-28T06:55:28;4.90;99.90
37222;DHT22;23119;51.842;-2.230;2023-02-28T07:00:23;5.00;99.90
37222;DHT22;23119;51.842;-2.230;2023-02-28T07:02:50;4.80;99.90
37222;DHT22;23119;51.842;-2.230;2023-02-28T07:05:21;4.80;99.90
37222;DHT22;23119;51.842;-2.230;2023-02-28T07:07:46;4.90;99.90
37222;DHT22;23119;51.842;-2.230;2023-02-28T07:10:15;5.00;99.90
37222;DHT22;23119;51.842;-2.230;2023-02-28T07:12:42;4.90;99.90
37222;DHT22;23119;51.842;-2.230;2023-02-28T07:15:11;5.10;99.90
37222;DHT22;23119;51.842;-2.230;2023-02-28T07:17:40;4.90;99.90
37222;DHT22;23119;51.842;-2.230;2023-02-28T07:20:06;5.00;99.90
37222;DHT22;23119;51.842;-2.230;2023-02-28T07:22:36;5.10;99.90
37222;DHT22;23119;51.842;-2.230;2023-02-28T07:25:02;5.00;99.90
37222;DHT22;23119;51.842;-2.230;2023-02-28T07:27:30;4.80;99.90
37222;DHT22;23119;51.842;-2.230;2023-02-28T07:30:01;5.00;99.90
37222;DHT22;23119;51.842;-2.230;2023-02-28T07:32:31;5.20;99.90
37222;DHT22;23119;51.842;-2.230;2023-02-28T07:35:06;5.10;99.90
37222;DHT22;23119;51.842;-2.230;2023-02-28T07:37:37;5.20;99.90
37222;DHT22;23119;51.842;-2.230;2023-02-28T07:40:08;5.20;99.90
37222;DHT22;23119;51.842;-2.230;2023-02-28T07:42:38;5.20;99.90
37222;DHT22;23119;51.842;-2.230;2023-02-28T07:45:04;5.20;99.90
37222;DHT22;23119;51.842;-2.230;2023-02-28T07:47:33;5.30;99.90
37222;DHT22;23119;51.842;-2.230;2023-02-28T07:49:59;2.50;99.90
37222;DHT22;23119;51.842;-2.230;2023-02-28T07:52:28;5.30;99.90
37222;DHT22;23119;51.842;-2.230;2023-02-28T07:54:54;5.30;99.90
37222;DHT22;23119;51.842;-2.230;2023-02-28T07:57:24;5.30;99.90
37222;DHT22;23119;51.842;-2.230;2023-02-28T07:59:51;5.30;99.90
37222;DHT22;23119;51.842;-2.230;2023-02-28T08:02:22;5.40;99.90
37222;DHT22;23119;51.842;-2.230;2023-02-28T08:04:47;5.40;99.90
37222;DHT22;23119;51.842;-2.230;2023-02-28T08:07:17;5.80;99.90
37222;DHT22;23119;51.842;-2.230;2023-02-28T08:09:49;5.40;99.90
37222;DHT22;23119;51.842;-2.230;2023-02-28T08:12:17;5.60;99.90
37222;DHT22;23119;51.842;-2.230;2023-02-28T08:14:43;5.40;99.90
37222;DHT22;23119;51.842;-2.230;2023-02-28T08:17:10;5.40;99.90
37222;DHT22;23119;51.842;-2.230;2023-02-28T08:19:44;5.50;99.90
37222;DHT22;23119;51.842;-2.230;2023-02-28T08:22:10;5.40;99.90
37222;DHT22;23119;51.842;-2.230;2023-02-28T08:24:36;5.60;99.90
37222;DHT22;23119;51.842;-2.230;2023-02-28T08:27:01;5.60;99.90
37222;DHT22;23119;51.842;-2.230;2023-02-28T08:29:30;5.60;99.90
37222;DHT22;23119;51.842;-2.230;2023-02-28T08:31:58;5.70;99.90
37222;DHT22;23119;51.842;-2.230;2023-02-28T08:34:24;5.70;99.90
37222;DHT22;23119;51.842;-2.230;2023-02-28T08:36:53;5.70;99.90
37222;DHT22;23119;51.842;-2.230;2023-02-28T08:39:22;5.70;99.90
37222;DHT22;23119;51.842;-2.230;2023-02-28T08:41:50;5.70;99.90
37222;DHT22;23119;51.842;-2.230;2023-02-28T08:44:18;5.80;99.90
37222;DHT22;23119;51.842;-2.230;2023-02-28T08:46:46;5.90;99.90
37222;DHT22;23119;51.842;-2.230;2023-02-28T08:49:16;5.80;99.90
37222;DHT22;23119;51.842;-2.230;2023-02-28T08:51:47;6.00;99.90
37222;DHT22;23119;51.842;-2.230;2023-02-28T08:54:16;5.80;99.90
37222;DHT22;23119;51.842;-2.230;2023-02-28T08:56:47;6.10;99.90
37222;DHT22;23119;51.842;-2.230;2023-02-28T08:59:16;6.20;99.90
37222;DHT22;23119;51.842;-2.230;2023-02-28T09:01:44;6.20;99.90
37222;DHT22;23119;51.842;-2.230;2023-02-28T09:04:15;6.20;99.90
37222;DHT22;23119;51.842;-2.230;2023-02-28T09:06:41;6.20;99.90
37222;DHT22;23119;51.842;-2.230;2023-02-28T09:09:07;6.20;99.90
37222;DHT22;23119;51.842;-2.230;2023-02-28T09:11:43;6.20;99.90
37222;DHT22;23119;51.842;-2.230;2023-02-28T09:14:09;6.30;99.90
37222;DHT22;23119;51.842;-2.230;2023-02-28T09:16:35;6.00;99.90
37222;DHT22;23119;51.842;-2.230;2023-02-28T09:19:04;6.40;99.90
37222;DHT22;23119;51.842;-2.230;2023-02-28T09:21:30;6.40;99.90
37222;DHT22;23119;51.842;-2.230;2023-02-28T09:24:16;6.30;99.90
37222;DHT22;23119;51.842;-2.230;2023-02-28T09:26:44;6.50;99.90
37222;DHT22;23119;51.842;-2.230;2023-02-28T09:29:10;6.60;99.90
37222;DHT22;23119;51.842;-2.230;2023-02-28T09:31:36;6.60;99.90
37222;DHT22;23119;51.842;-2.230;2023-02-28T09:34:05;6.70;99.90
37222;DHT22;23119;51.842;-2.230;2023-02-28T09:36:34;6.70;99.90
37222;DHT22;23119;51.842;-2.230;2023-02-28T09:39:15;6.80;99.90
37222;DHT22;23119;51.842;-2.230;2023-02-28T09:41:45;6.90;99.90
37222;DHT22;23119;51.842;-2.230;2023-02-28T09:44:37;6.90;99.90
37222;DHT22;23119;51.842;-2.230;2023-02-28T09:47:30;6.90;99.90
37222;DHT22;23119;51.842;-2.230;2023-02-28T09:50:16;6.90;99.90
37222;DHT22;23119;51.842;-2.230;2023-02-28T09:52:45;6.90;99.90
37222;DHT22;23119;51.842;-2.230;2023-02-28T09:55:42;7.00;99.90
37222;DHT22;23119;51.842;-2.230;2023-02-28T09:58:23;7.10;99.90
37222;DHT22;23119;51.842;-2.230;2023-02-28T10:04:00;7.00;99.90
37222;DHT22;23119;51.842;-2.230;2023-02-28T10:06:33;7.10;99.90
37222;DHT22;23119;51.842;-2.230;2023-02-28T10:09:13;7.10;99.90
37222;DHT22;23119;51.842;-2.230;2023-02-28T10:11:44;7.10;99.90
37222;DHT22;23119;51.842;-2.230;2023-02-28T10:14:21;7.10;99.90
37222;DHT22;23119;51.842;-2.230;2023-02-28T10:17:12;7.10;99.90
37222;DHT22;23119;51.842;-2.230;2023-02-28T10:24:52;7.10;99.90
37222;DHT22;23119;51.842;-2.230;2023-02-28T10:27:38;7.10;99.90
37222;DHT22;23119;51.842;-2.230;2023-02-28T10:30:14;7.20;99.90
37222;DHT22;23119;51.842;-2.230;2023-02-28T10:32:49;7.20;99.90
37222;DHT22;23119;51.842;-2.230;2023-02-28T10:35:27;7.20;99.90
37222;DHT22;23119;51.842;-2.230;2023-02-28T10:37:56;7.20;99.90
37222;DHT22;23119;51.842;-2.230;2023-02-28T10:45:33;7.30;99.90
37222;DHT22;23119;51.842;-2.230;2023-02-28T10:48:27;7.40;99.90
37222;DHT22;23119;51.842;-2.230;2023-02-28T10:50:56;7.40;99.90
37222;DHT22;23119;51.842;-2.230;2023-02-28T11:01:53;7.80;99.90
37222;DHT22;23119;51.842;-2.230;2023-02-28T11:04:20;7.70;99.90
37222;DHT22;23119;51.842;-2.230;2023-02-28T11:07:22;7.70;99.90
37222;DHT22;23119;51.842;-2.230;2023-02-28T11:09:52;7.70;99.90
37222;DHT22;23119;51.842;-2.230;2023-02-28T11:12:38;7.80;99.90
37222;DHT22;23119;51.842;-2.230;2023-02-28T11:20:59;7.80;99.90
37222;DHT22;23119;51.842;-2.230;2023-02-28T11:23:30;7.70;99.90
37222;DHT22;23119;51.842;-2.230;2023-02-28T11:26:05;7.70;99.90
37222;DHT22;23119;51.842;-2.230;2023-02-28T11:28:42;7.70;99.90
37222;DHT22;23119;51.842;-2.230;2023-02-28T11:31:18;7.70;99.90
37222;DHT22;23119;51.842;-2.230;2023-02-28T11:33:54;7.80;99.90
37222;DHT22;23119;51.842;-2.230;2023-02-28T11:36:27;7.80;99.90
37222;DHT22;23119;51.842;-2.230;2023-02-28T11:39:11;7.90;99.90
37222;DHT22;23119;51.842;-2.230;2023-02-28T11:53:35;8.10;99.90
37222;DHT22;23119;51.842;-2.230;2023-02-28T11:58:55;8.00;99.90
37222;DHT22;23119;51.842;-2.230;2023-02-28T12:01:49;8.00;99.90
37222;DHT22;23119;51.842;-2.230;2023-02-28T12:18:35;7.80;99.90
37222;DHT22;23119;51.842;-2.230;2023-02-28T12:24:22;7.80;99.90
37222;DHT22;23119;51.842;-2.230;2023-02-28T12:26:54;7.70;99.90
37222;DHT22;23119;51.842;-2.230;2023-02-28T12:29:28;7.70;99.90
37222;DHT22;23119;51.842;-2.230;2023-02-28T12:32:14;7.70;99.90
37222;DHT22;23119;51.842;-2.230;2023-02-28T12:34:50;7.70;99.90
37222;DHT22;23119;51.842;-2.230;2023-02-28T12:37:27;7.70;99.90
37222;DHT22;23119;51.842;-2.230;2023-02-28T12:40:02;7.70;99.90
37222;DHT22;23119;51.842;-2.230;2023-02-28T12:42:58;7.70;99.90
37222;DHT22;23119;51.842;-2.230;2023-02-28T12:45:36;7.80;99.90
37222;DHT22;23119;51.842;-2.230;2023-02-28T12:48:07;7.80;99.90
37222;DHT22;23119;51.842;-2.230;2023-02-28T12:50:34;8.10;99.90
37222;DHT22;23119;51.842;-2.230;2023-02-28T12:53:04;7.90;99.90
37222;DHT22;23119;51.842;-2.230;2023-02-28T13:09:51;7.90;99.90
37222;DHT22;23119;51.842;-2.230;2023-02-28T13:12:17;7.90;99.90
37222;DHT22;23119;51.842;-2.230;2023-02-28T13:14:52;7.90;99.90
37222;DHT22;23119;51.842;-2.230;2023-02-28T13:17:41;7.90;99.90
37222;DHT22;23119;51.842;-2.230;2023-02-28T13:22:52;8.20;99.90
37222;DHT22;23119;51.842;-2.230;2023-02-28T13:27:52;8.30;99.90
37222;DHT22;23119;51.842;-2.230;2023-02-28T13:38:53;8.80;99.90
37222;DHT22;23119;51.842;-2.230;2023-02-28T13:44:10;8.90;99.90
37222;DHT22;23119;51.842;-2.230;2023-02-28T14:00:28;8.80;99.90
37222;DHT22;23119;51.842;-2.230;2023-02-28T14:05:32;8.70;99.90
37222;DHT22;23119;51.842;-2.230;2023-02-28T14:08:05;8.60;99.90
37222;DHT22;23119;51.842;-2.230;2023-02-28T14:10:48;8.50;99.90
37222;DHT22;23119;51.842;-2.230;2023-02-28T14:15:55;8.60;99.90
37222;DHT22;23119;51.842;-2.230;2023-02-28T14:18:29;8.70;99.90
37222;DHT22;23119;51.842;-2.230;2023-02-28T14:24:03;8.90;99.90
37222;DHT22;23119;51.842;-2.230;2023-02-28T14:32:15;9.20;99.90
37222;DHT22;23119;51.842;-2.230;2023-02-28T14:37:50;9.10;99.90
37222;DHT22;23119;51.842;-2.230;2023-02-28T14:40:30;9.00;99.90
37222;DHT22;23119;51.842;-2.230;2023-02-28T14:43:05;8.80;99.90
37222;DHT22;23119;51.842;-2.230;2023-02-28T14:45:35;8.70;99.90
37222;DHT22;23119;51.842;-2.230;2023-02-28T14:48:02;8.70;99.90
37222;DHT22;23119;51.842;-2.230;2023-02-28T14:50:34;8.60;99.90
37222;DHT22;23119;51.842;-2.230;2023-02-28T14:53:01;8.60;99.90
37222;DHT22;23119;51.842;-2.230;2023-02-28T14:55:32;8.60;99.90
37222;DHT22;23119;51.842;-2.230;2023-02-28T14:58:05;8.70;99.90
37222;DHT22;23119;51.842;-2.230;2023-02-28T15:00:46;8.80;99.90
37222;DHT22;23119;51.842;-2.230;2023-02-28T15:05:57;8.90;99.90
37222;DHT22;23119;51.842;-2.230;2023-02-28T15:08:26;9.00;99.90
37222;DHT22;23119;51.842;-2.230;2023-02-28T15:10:58;9.00;99.90
37222;DHT22;23119;51.842;-2.230;2023-02-28T15:13:44;9.00;99.90
37222;DHT22;23119;51.842;-2.230;2023-02-28T15:16:28;9.10;99.90
37222;DHT22;23119;51.842;-2.230;2023-02-28T15:19:06;9.20;99.90
37222;DHT22;23119;51.842;-2.230;2023-02-28T15:21:39;9.30;99.90
37222;DHT22;23119;51.842;-2.230;2023-02-28T15:26:40;9.40;99.90
37222;DHT22;23119;51.842;-2.230;2023-02-28T15:29:19;9.50;99.90
37222;DHT22;23119;51.842;-2.230;2023-02-28T15:32:16;9.60;99.90
37222;DHT22;23119;51.842;-2.230;2023-02-28T15:34:50;9.60;99.90
37222;DHT22;23119;51.842;-2.230;2023-02-28T15:38:02;9.60;99.90
37222;DHT22;23119;51.842;-2.230;2023-02-28T15:40:36;9.60;99.90
37222;DHT22;23119;51.842;-2.230;2023-02-28T15:46:14;9.60;99.90
37222;DHT22;23119;51.842;-2.230;2023-02-28T15:48:54;9.60;99.90
37222;DHT22;23119;51.842;-2.230;2023-02-28T15:51:34;9.50;99.90
37222;DHT22;23119;51.842;-2.230;2023-02-28T15:54:12;9.40;99.90
37222;DHT22;23119;51.842;-2.230;2023-02-28T15:56:45;9.50;99.90
37222;DHT22;23119;51.842;-2.230;2023-02-28T15:59:23;9.50;99.90
37222;DHT22;23119;51.842;-2.230;2023-02-28T16:02:14;9.50;99.90
37222;DHT22;23119;51.842;-2.230;2023-02-28T16:05:25;9.40;99.90
37222;DHT22;23119;51.842;-2.230;2023-02-28T16:08:11;9.30;99.90
37222;DHT22;23119;51.842;-2.230;2023-02-28T16:10:38;9.20;99.90
37222;DHT22;23119;51.842;-2.230;2023-02-28T16:13:16;9.10;99.90
37222;DHT22;23119;51.842;-2.230;2023-02-28T16:15:45;9.00;99.90
37222;DHT22;23119;51.842;-2.230;2023-02-28T16:18:15;8.90;99.90
37222;DHT22;23119;51.842;-2.230;2023-02-28T16:20:41;8.90;99.90
37222;DHT22;23119;51.842;-2.230;2023-02-28T16:23:07;8.90;99.90
37222;DHT22;23119;51.842;-2.230;2023-02-28T16:25:39;8.80;99.90
37222;DHT22;23119;51.842;-2.230;2023-02-28T16:28:16;8.80;99.90
37222;DHT22;23119;51.842;-2.230;2023-02-28T16:30:45;8.80;99.90
37222;DHT22;23119;51.842;-2.230;2023-02-28T16:33:19;11.10;99.90
37222;DHT22;23119;51.842;-2.230;2023-02-28T16:35:50;8.80;99.90
37222;DHT22;23119;51.842;-2.230;2023-02-28T16:38:18;9.10;99.90
37222;DHT22;23119;51.842;-2.230;2023-02-28T16:40:45;8.70;99.90
37222;DHT22;23119;51.842;-2.230;2023-02-28T16:43:19;8.70;99.90
37222;DHT22;23119;51.842;-2.230;2023-02-28T16:45:46;8.70;99.90
37222;DHT22;23119;51.842;-2.230;2023-02-28T16:48:15;8.60;99.90
37222;DHT22;23119;51.842;-2.230;2023-02-28T16:50:44;8.50;99.90
37222;DHT22;23119;51.842;-2.230;2023-02-28T16:53:10;8.50;99.90
37222;DHT22;23119;51.842;-2.230;2023-02-28T16:55:38;8.40;99.90
37222;DHT22;23119;51.842;-2.230;2023-02-28T16:58:13;8.50;99.90
37222;DHT22;23119;51.842;-2.230;2023-02-28T17:00:42;8.40;99.90
37222;DHT22;23119;51.842;-2.230;2023-02-28T17:03:29;8.40;99.90
37222;DHT22;23119;51.842;-2.230;2023-02-28T17:06:00;8.30;99.90
37222;DHT22;23119;51.842;-2.230;2023-02-28T17:08:26;8.30;99.90
37222;DHT22;23119;51.842;-2.230;2023-02-28T17:10:54;8.30;99.90
37222;DHT22;23119;51.842;-2.230;2023-02-28T17:13:19;8.20;99.90
37222;DHT22;23119;51.842;-2.230;2023-02-28T17:15:46;8.20;99.90
37222;DHT22;23119;51.842;-2.230;2023-02-28T17:18:18;8.20;99.90
37222;DHT22;23119;51.842;-2.230;2023-02-28T17:20:47;8.10;99.90
37222;DHT22;23119;51.842;-2.230;2023-02-28T17:23:16;8.10;99.90
37222;DHT22;23119;51.842;-2.230;2023-02-28T17:25:42;8.10;99.90
37222;DHT22;23119;51.842;-2.230;2023-02-28T17:28:22;8.10;99.90
37222;DHT22;23119;51.842;-2.230;2023-02-28T17:30:50;8.10;99.90
37222;DHT22;23119;51.842;-2.230;2023-02-28T17:33:19;8.10;99.90
37222;DHT22;23119;51.842;-2.230;2023-02-28T17:35:51;8.00;99.90
37222;DHT22;23119;51.842;-2.230;2023-02-28T17:38:22;8.00;99.90
37222;DHT22;23119;51.842;-2.230;2023-02-28T17:41:00;8.00;99.90
37222;DHT22;23119;51.842;-2.230;2023-02-28T17:43:26;8.00;99.90
37222;DHT22;23119;51.842;-2.230;2023-02-28T17:45:53;8.00;99.90
37222;DHT22;23119;51.842;-2.230;2023-02-28T17:48:19;8.00;99.90
37222;DHT22;23119;51.842;-2.230;2023-02-28T17:50:45;8.00;99.90
37222;DHT22;23119;51.842;-2.230;2023-02-28T17:53:19;7.90;99.90
37222;DHT22;23119;51.842;-2.230;2023-02-28T17:55:49;7.90;99.90
37222;DHT22;23119;51.842;-2.230;2023-02-28T17:58:16;7.90;99.90
37222;DHT22;23119;51.842;-2.230;2023-02-28T18:00:47;7.80;99.90
37222;DHT22;23119;51.842;-2.230;2023-02-28T18:03:22;7.80;99.90
37222;DHT22;23119;51.842;-2.230;2023-02-28T18:05:49;7.80;99.90
37222;DHT22;23119;51.842;-2.230;2023-02-28T18:08:16;7.60;99.90
37222;DHT22;23119;51.842;-2.230;2023-02-28T18:10:50;7.60;99.90
37222;DHT22;23119;51.842;-2.230;2023-02-28T18:13:18;7.60;99.90
37222;DHT22;23119;51.842;-2.230;2023-02-28T18:15:44;7.50;99.90
37222;DHT22;23119;51.842;-2.230;2023-02-28T18:18:13;7.50;99.90
37222;DHT22;23119;51.842;-2.230;2023-02-28T18:20:44;7.50;99.90
37222;DHT22;23119;51.842;-2.230;2023-02-28T18:23:10;7.50;99.90
37222;DHT22;23119;51.842;-2.230;2023-02-28T18:25:41;7.50;99.90
37222;DHT22;23119;51.842;-2.230;2023-02-28T18:28:07;7.50;99.90
37222;DHT22;23119;51.842;-2.230;2023-02-28T18:30:39;7.50;99.90
37222;DHT22;23119;51.842;-2.230;2023-02-28T18:33:17;7.50;99.90
37222;DHT22;23119;51.842;-2.230;2023-02-28T18:35:45;7.50;99.90
37222;DHT22;23119;51.842;-2.230;2023-02-28T18:38:15;7.50;99.90
37222;DHT22;23119;51.842;-2.230;2023-02-28T18:40:42;7.50;99.90
37222;DHT22;23119;51.842;-2.230;2023-02-28T18:43:10;7.50;99.90
37222;DHT22;23119;51.842;-2.230;2023-02-28T18:45:37;7.50;99.90